sensor_id;sensor_type;location;lat;lon;timestamp;pressure;altitude;pressure_sealevel;temperature;humidity
29825;BME280;16713;52.916;12.834;2022-11-20T00:01:20;100502.63;;;2.40;76.14
29825;BME280;16713;52.916;12.834;2022-11-20T00:03:47;100507.03;;;2.36;75.49
29825;BME280;16713;52.916;12.834;2022-11-20T00:06:16;100507.03;;;2.36;76.42
29825;BME280;16713;52.916;12.834;2022-11-20T00:08:43;100500.91;;;2.44;76.12
29825;BME280;16713;52.916;12.834;2022-11-20T00:11:21;100503.84;;;2.34;76.52
29825;BME280;16713;52.916;12.834;2022-11-20T00:13:50;100494.88;;;2.47;75.52
29825;BME280;16713;52.916;12.834;2022-11-20T00:16:20;100497.03;;;2.36;76.02
29825;BME280;16713;52.916;12.834;2022-11-20T00:18:47;100487.16;;;2.54;75.88
29825;BME280;16713;52.916;12.834;2022-11-20T00:21:15;100490.47;;;2.51;76.68
29825;BME280;16713;52.916;12.834;2022-11-20T00:23:42;100482.06;;;2.39;76.61
29825;BME280;16713;52.916;12.834;2022-11-20T00:26:11;100492.53;;;2.32;77.45
29825;BME280;16713;52.916;12.834;2022-11-20T00:28:38;100491.34;;;2.24;76.53
29825;BME280;16713;52.916;12.834;2022-11-20T00:31:15;100492.84;;;2.30;76.00
29825;BME280;16713;52.916;12.834;2022-11-20T00:33:43;100490.63;;;2.32;77.23
29825;BME280;16713;52.916;12.834;2022-11-20T00:36:20;100491.09;;;2.48;76.54
29825;BME280;16713;52.916;12.834;2022-11-20T00:38:51;100493.31;;;2.32;75.73
29825;BME280;16713;52.916;12.834;2022-11-20T00:41:18;100489.22;;;2.35;77.12
29825;BME280;16713;52.916;12.834;2022-11-20T00:43:45;100489.56;;;2.20;77.80
29825;BME280;16713;52.916;12.834;2022-11-20T00:46:16;100497.56;;;2.25;77.01
29825;BME280;16713;52.916;12.834;2022-11-20T00:48:43;100488.59;;;2.38;76.55
29825;BME280;16713;52.916;12.834;2022-11-20T00:51:12;100490.91;;;2.31;77.53
29825;BME280;16713;52.916;12.834;2022-11-20T00:53:39;100494.25;;;2.50;75.92
29825;BME280;16713;52.916;12.834;2022-11-20T00:56:07;100488.69;;;2.46;76.50
29825;BME280;16713;52.916;12.834;2022-11-20T00:58:37;100502.16;;;2.24;76.79
29825;BME280;16713;52.916;12.834;2022-11-20T01:01:08;100495.97;;;2.24;76.65
29825;BME280;16713;52.916;12.834;2022-11-20T01:03:37;100499.75;;;2.23;77.74
29825;BME280;16713;52.916;12.834;2022-11-20T01:06:15;100494.31;;;2.36;78.04
29825;BME280;16713;52.916;12.834;2022-11-20T01:08:43;100487.72;;;2.29;76.56
29825;BME280;16713;52.916;12.834;2022-11-20T01:11:19;100492.72;;;2.35;76.67
29825;BME280;16713;52.916;12.834;2022-11-20T01:13:48;100486.41;;;2.40;76.70
29825;BME280;16713;52.916;12.834;2022-11-20T01:16:20;100488.22;;;2.31;75.98
29825;BME280;16713;52.916;12.834;2022-11-20T01:18:49;100487.75;;;2.15;78.13
29825;BME280;16713;52.916;12.834;2022-11-20T01:21:22;100484.66;;;2.22;77.92
29825;BME280;16713;52.916;12.834;2022-11-20T01:23:49;100482.19;;;2.34;76.29
29825;BME280;16713;52.916;12.834;2022-11-20T01:26:19;100484.13;;;2.20;76.41
29825;BME280;16713;52.916;12.834;2022-11-20T01:28:47;100480.22;;;2.26;77.23
29825;BME280;16713;52.916;12.834;2022-11-20T01:31:25;100458.44;;;2.31;77.21
29825;BME280;16713;52.916;12.834;2022-11-20T01:33:54;100472.03;;;2.17;77.22
29825;BME280;16713;52.916;12.834;2022-11-20T01:36:23;100476.53;;;2.08;76.27
29825;BME280;16713;52.916;12.834;2022-11-20T01:38:54;100471.34;;;2.12;76.87
29825;BME280;16713;52.916;12.834;2022-11-20T01:41:21;100477.25;;;2.14;76.89
29825;BME280;16713;52.916;12.834;2022-11-20T01:44:06;100466.63;;;2.17;77.13
29825;BME280;16713;52.916;12.834;2022-11-20T01:46:35;100467.16;;;2.06;77.17
29825;BME280;16713;52.916;12.834;2022-11-20T01:49:08;100465.06;;;2.38;76.67
29825;BME280;16713;52.916;12.834;2022-11-20T01:51:48;100466.47;;;2.36;76.08
29825;BME280;16713;52.916;12.834;2022-11-20T01:54:19;100462.00;;;2.18;76.44
29825;BME280;16713;52.916;12.834;2022-11-20T01:56:48;100457.09;;;2.20;76.40
29825;BME280;16713;52.916;12.834;2022-11-20T01:59:17;100463.25;;;2.34;76.63
29825;BME280;16713;52.916;12.834;2022-11-20T02:01:45;100458.84;;;2.38;76.69
29825;BME280;16713;52.916;12.834;2022-11-20T02:04:12;100460.13;;;2.04;76.42
29825;BME280;16713;52.916;12.834;2022-11-20T02:06:40;100456.41;;;2.14;77.48
29825;BME280;16713;52.916;12.834;2022-11-20T02:09:08;100452.69;;;2.24;76.36
29825;BME280;16713;52.916;12.834;2022-11-20T02:11:35;100456.28;;;2.19;76.89
29825;BME280;16713;52.916;12.834;2022-11-20T02:14:01;100450.81;;;2.11;77.10
29825;BME280;16713;52.916;12.834;2022-11-20T02:16:28;100442.38;;;2.12;75.58
29825;BME280;16713;52.916;12.834;2022-11-20T02:18:57;100445.00;;;2.03;76.93
29825;BME280;16713;52.916;12.834;2022-11-20T02:26:27;100441.69;;;2.07;77.46
29825;BME280;16713;52.916;12.834;2022-11-20T02:28:54;100443.47;;;2.11;76.63
29825;BME280;16713;52.916;12.834;2022-11-20T02:31:21;100445.16;;;2.21;76.20
29825;BME280;16713;52.916;12.834;2022-11-20T02:33:47;100437.03;;;2.21;76.12
29825;BME280;16713;52.916;12.834;2022-11-20T02:36:15;100435.56;;;2.15;76.73
29825;BME280;16713;52.916;12.834;2022-11-20T02:38:42;100434.94;;;2.18;77.47
29825;BME280;16713;52.916;12.834;2022-11-20T02:41:09;100437.44;;;2.28;76.27
29825;BME280;16713;52.916;12.834;2022-11-20T02:43:35;100438.22;;;2.28;76.25
29825;BME280;16713;52.916;12.834;2022-11-20T02:46:01;100442.91;;;2.36;74.83
29825;BME280;16713;52.916;12.834;2022-11-20T02:48:28;100442.09;;;2.36;75.72
29825;BME280;16713;52.916;12.834;2022-11-20T02:50:59;100438.66;;;2.22;75.54
29825;BME280;16713;52.916;12.834;2022-11-20T02:53:25;100434.63;;;2.19;76.74
29825;BME280;16713;52.916;12.834;2022-11-20T02:55:51;100439.00;;;2.29;76.70
29825;BME280;16713;52.916;12.834;2022-11-20T02:58:18;100443.94;;;2.27;75.03
29825;BME280;16713;52.916;12.834;2022-11-20T03:00:44;100445.81;;;2.40;75.31
29825;BME280;16713;52.916;12.834;2022-11-20T03:03:10;100448.63;;;2.35;74.77
29825;BME280;16713;52.916;12.834;2022-11-20T03:05:37;100432.66;;;2.11;75.26
29825;BME280;16713;52.916;12.834;2022-11-20T03:08:03;100437.28;;;2.11;75.07
29825;BME280;16713;52.916;12.834;2022-11-20T03:10:29;100427.94;;;2.17;75.52
29825;BME280;16713;52.916;12.834;2022-11-20T03:12:56;100427.84;;;2.22;74.76
29825;BME280;16713;52.916;12.834;2022-11-20T03:15:23;100429.75;;;2.43;75.46
29825;BME280;16713;52.916;12.834;2022-11-20T03:17:52;100430.84;;;2.20;75.18
29825;BME280;16713;52.916;12.834;2022-11-20T03:20:18;100424.84;;;2.10;75.58
29825;BME280;16713;52.916;12.834;2022-11-20T03:22:45;100425.66;;;2.10;75.93
29825;BME280;16713;52.916;12.834;2022-11-20T03:25:12;100421.47;;;2.04;76.11
29825;BME280;16713;52.916;12.834;2022-11-20T03:27:38;100425.03;;;2.13;75.97
29825;BME280;16713;52.916;12.834;2022-11-20T03:30:04;100421.84;;;1.97;75.23
29825;BME280;16713;52.916;12.834;2022-11-20T03:32:31;100411.75;;;2.03;75.19
29825;BME280;16713;52.916;12.834;2022-11-20T03:34:57;100415.94;;;1.95;76.67
29825;BME280;16713;52.916;12.834;2022-11-20T03:37:24;100418.25;;;2.16;76.93
29825;BME280;16713;52.916;12.834;2022-11-20T03:39:50;100413.81;;;2.20;75.10
29825;BME280;16713;52.916;12.834;2022-11-20T03:42:16;100425.47;;;2.29;74.50
29825;BME280;16713;52.916;12.834;2022-11-20T03:45:01;100424.13;;;2.18;75.79
29825;BME280;16713;52.916;12.834;2022-11-20T03:47:28;100418.47;;;2.06;75.69
29825;BME280;16713;52.916;12.834;2022-11-20T03:49:54;100410.72;;;2.13;76.05
29825;BME280;16713;52.916;12.834;2022-11-20T03:52:20;100409.22;;;2.07;75.68
29825;BME280;16713;52.916;12.834;2022-11-20T03:54:47;100409.81;;;2.17;74.25
29825;BME280;16713;52.916;12.834;2022-11-20T03:57:13;100419.63;;;2.13;75.96
29825;BME280;16713;52.916;12.834;2022-11-20T03:59:39;100418.81;;;2.13;74.35
29825;BME280;16713;52.916;12.834;2022-11-20T04:02:06;100414.38;;;1.94;75.10
29825;BME280;16713;52.916;12.834;2022-11-20T04:04:32;100416.25;;;2.08;75.58
29825;BME280;16713;52.916;12.834;2022-11-20T04:06:58;100418.19;;;2.29;75.30
29825;BME280;16713;52.916;12.834;2022-11-20T04:09:25;100417.97;;;2.03;74.72
29825;BME280;16713;52.916;12.834;2022-11-20T04:11:51;100409.16;;;1.84;75.69
29825;BME280;16713;52.916;12.834;2022-11-20T04:14:17;100412.78;;;1.80;75.30
29825;BME280;16713;52.916;12.834;2022-11-20T04:16:44;100404.47;;;1.90;75.40
29825;BME280;16713;52.916;12.834;2022-11-20T04:19:12;100408.16;;;2.08;76.19
29825;BME280;16713;52.916;12.834;2022-11-20T04:21:39;100408.94;;;2.08;74.63
29825;BME280;16713;52.916;12.834;2022-11-20T04:24:05;100407.22;;;1.98;75.82
29825;BME280;16713;52.916;12.834;2022-11-20T04:26:32;100409.03;;;2.03;76.28
29825;BME280;16713;52.916;12.834;2022-11-20T04:28:59;100407.84;;;1.95;76.35
29825;BME280;16713;52.916;12.834;2022-11-20T04:31:28;100410.81;;;1.72;75.92
29825;BME280;16713;52.916;12.834;2022-11-20T04:33:55;100401.78;;;1.76;74.88
29825;BME280;16713;52.916;12.834;2022-11-20T04:36:22;100406.16;;;1.72;76.38
29825;BME280;16713;52.916;12.834;2022-11-20T04:38:53;100400.19;;;1.75;76.04
29825;BME280;16713;52.916;12.834;2022-11-20T04:41:23;100403.25;;;1.82;75.40
29825;BME280;16713;52.916;12.834;2022-11-20T04:43:51;100408.41;;;1.70;74.50
29825;BME280;16713;52.916;12.834;2022-11-20T04:46:18;100405.91;;;1.74;74.84
29825;BME280;16713;52.916;12.834;2022-11-20T04:48:45;100408.72;;;1.69;75.27
29825;BME280;16713;52.916;12.834;2022-11-20T04:51:11;100411.09;;;1.70;74.54
29825;BME280;16713;52.916;12.834;2022-11-20T04:53:38;100402.19;;;1.70;73.95
29825;BME280;16713;52.916;12.834;2022-11-20T04:56:05;100406.72;;;1.61;74.83
29825;BME280;16713;52.916;12.834;2022-11-20T04:58:33;100401.91;;;1.58;75.19
29825;BME280;16713;52.916;12.834;2022-11-20T05:01:02;100403.97;;;1.74;74.47
29825;BME280;16713;52.916;12.834;2022-11-20T05:03:29;100408.72;;;1.69;73.52
29825;BME280;16713;52.916;12.834;2022-11-20T05:05:56;100398.78;;;1.64;73.11
29825;BME280;16713;52.916;12.834;2022-11-20T05:08:22;100392.69;;;1.45;73.85
29825;BME280;16713;52.916;12.834;2022-11-20T05:10:48;100390.69;;;1.51;73.32
29825;BME280;16713;52.916;12.834;2022-11-20T05:13:15;100393.50;;;1.59;75.10
29825;BME280;16713;52.916;12.834;2022-11-20T05:15:41;100387.59;;;1.57;73.77
29825;BME280;16713;52.916;12.834;2022-11-20T05:18:07;100388.88;;;1.60;74.29
29825;BME280;16713;52.916;12.834;2022-11-20T05:20:34;100387.22;;;1.37;73.44
29825;BME280;16713;52.916;12.834;2022-11-20T05:23:02;100390.69;;;1.37;75.13
29825;BME280;16713;52.916;12.834;2022-11-20T05:25:28;100388.31;;;1.49;75.65
29825;BME280;16713;52.916;12.834;2022-11-20T05:27:54;100383.81;;;1.45;74.54
29825;BME280;16713;52.916;12.834;2022-11-20T05:30:21;100384.53;;;1.37;74.90
29825;BME280;16713;52.916;12.834;2022-11-20T05:32:47;100389.78;;;1.55;74.88
29825;BME280;16713;52.916;12.834;2022-11-20T05:35:13;100387.09;;;1.55;74.08
29825;BME280;16713;52.916;12.834;2022-11-20T05:37:40;100389.94;;;1.72;74.49
29825;BME280;16713;52.916;12.834;2022-11-20T05:40:06;100391.22;;;1.53;72.81
29825;BME280;16713;52.916;12.834;2022-11-20T05:42:33;100387.19;;;1.50;73.69
29825;BME280;16713;52.916;12.834;2022-11-20T05:45:03;100390.09;;;1.54;73.94
29825;BME280;16713;52.916;12.834;2022-11-20T05:47:33;100396.47;;;1.71;73.00
29825;BME280;16713;52.916;12.834;2022-11-20T05:50:00;100388.69;;;1.56;72.64
29825;BME280;16713;52.916;12.834;2022-11-20T05:52:29;100396.50;;;1.58;73.72
29825;BME280;16713;52.916;12.834;2022-11-20T05:54:56;100381.59;;;1.47;73.39
29825;BME280;16713;52.916;12.834;2022-11-20T05:57:22;100379.09;;;1.50;74.90
29825;BME280;16713;52.916;12.834;2022-11-20T05:59:48;100380.09;;;1.54;74.38
29825;BME280;16713;52.916;12.834;2022-11-20T06:02:14;100386.28;;;1.55;73.53
29825;BME280;16713;52.916;12.834;2022-11-20T06:04:41;100373.41;;;1.38;73.78
29825;BME280;16713;52.916;12.834;2022-11-20T06:07:07;100382.88;;;1.63;72.76
29825;BME280;16713;52.916;12.834;2022-11-20T06:09:34;100377.81;;;1.48;73.11
29825;BME280;16713;52.916;12.834;2022-11-20T06:12:00;100371.09;;;1.45;73.52
29825;BME280;16713;52.916;12.834;2022-11-20T06:14:26;100365.06;;;1.48;73.12
29825;BME280;16713;52.916;12.834;2022-11-20T06:16:53;100369.50;;;1.58;74.09
29825;BME280;16713;52.916;12.834;2022-11-20T06:19:19;100355.56;;;1.51;73.67
29825;BME280;16713;52.916;12.834;2022-11-20T06:21:47;100362.72;;;1.33;75.11
29825;BME280;16713;52.916;12.834;2022-11-20T06:24:13;100361.19;;;1.54;73.81
29825;BME280;16713;52.916;12.834;2022-11-20T06:26:40;100365.00;;;1.26;74.33
29825;BME280;16713;52.916;12.834;2022-11-20T06:29:06;100369.78;;;1.29;73.46
29825;BME280;16713;52.916;12.834;2022-11-20T06:31:32;100364.78;;;1.23;74.85
29825;BME280;16713;52.916;12.834;2022-11-20T06:34:01;100363.91;;;1.27;75.09
29825;BME280;16713;52.916;12.834;2022-11-20T06:36:27;100353.69;;;1.24;74.50
29825;BME280;16713;52.916;12.834;2022-11-20T06:38:53;100357.19;;;1.25;75.25
29825;BME280;16713;52.916;12.834;2022-11-20T06:41:20;100363.00;;;1.18;75.24
29825;BME280;16713;52.916;12.834;2022-11-20T06:43:47;100361.69;;;1.29;74.02
29825;BME280;16713;52.916;12.834;2022-11-20T06:46:14;100365.00;;;1.26;73.94
29825;BME280;16713;52.916;12.834;2022-11-20T06:48:41;100361.31;;;1.22;74.80
29825;BME280;16713;52.916;12.834;2022-11-20T06:51:07;100363.19;;;1.49;74.86
29825;BME280;16713;52.916;12.834;2022-11-20T06:53:34;100367.41;;;1.14;74.87
29825;BME280;16713;52.916;12.834;2022-11-20T06:56:01;100367.41;;;1.28;75.08
29825;BME280;16713;52.916;12.834;2022-11-20T06:58:28;100365.91;;;1.35;74.60
29825;BME280;16713;52.916;12.834;2022-11-20T07:00:58;100360.69;;;1.12;74.92
29825;BME280;16713;52.916;12.834;2022-11-20T07:03:25;100360.00;;;1.33;74.05
29825;BME280;16713;52.916;12.834;2022-11-20T07:05:53;100367.41;;;1.41;75.33
29825;BME280;16713;52.916;12.834;2022-11-20T07:08:20;100371.91;;;1.46;74.73
29825;BME280;16713;52.916;12.834;2022-11-20T07:10:47;100360.06;;;1.55;74.79
29825;BME280;16713;52.916;12.834;2022-11-20T07:13:13;100367.09;;;1.43;74.63
29825;BME280;16713;52.916;12.834;2022-11-20T07:15:40;100363.66;;;1.64;74.37
29825;BME280;16713;52.916;12.834;2022-11-20T07:18:06;100356.09;;;1.53;74.60
29825;BME280;16713;52.916;12.834;2022-11-20T07:20:32;100364.09;;;1.44;73.64
29825;BME280;16713;52.916;12.834;2022-11-20T07:22:59;100365.06;;;1.48;74.54
29825;BME280;16713;52.916;12.834;2022-11-20T07:25:25;100365.50;;;1.42;74.22
29825;BME280;16713;52.916;12.834;2022-11-20T07:27:52;100353.06;;;1.54;74.11
29825;BME280;16713;52.916;12.834;2022-11-20T07:30:18;100362.66;;;1.47;74.71
29825;BME280;16713;52.916;12.834;2022-11-20T07:32:51;100359.47;;;1.58;74.88
29825;BME280;16713;52.916;12.834;2022-11-20T07:35:18;100363.28;;;1.57;75.22
29825;BME280;16713;52.916;12.834;2022-11-20T07:37:45;100356.44;;;1.60;74.89
29825;BME280;16713;52.916;12.834;2022-11-20T07:40:12;100359.25;;;1.68;75.53
29825;BME280;16713;52.916;12.834;2022-11-20T07:42:38;100361.03;;;1.73;74.81
29825;BME280;16713;52.916;12.834;2022-11-20T07:45:05;100347.56;;;1.59;73.66
29825;BME280;16713;52.916;12.834;2022-11-20T07:47:35;100351.28;;;1.50;74.29
29825;BME280;16713;52.916;12.834;2022-11-20T07:50:01;100365.06;;;1.48;74.08
29825;BME280;16713;52.916;12.834;2022-11-20T07:52:28;100358.97;;;1.56;75.00
29825;BME280;16713;52.916;12.834;2022-11-20T07:54:54;100355.78;;;1.54;74.44
29825;BME280;16713;52.916;12.834;2022-11-20T07:57:21;100356.09;;;1.53;73.11
29825;BME280;16713;52.916;12.834;2022-11-20T07:59:53;100353.63;;;1.78;73.81
29825;BME280;16713;52.916;12.834;2022-11-20T08:02:19;100352.41;;;1.71;72.73
29825;BME280;16713;52.916;12.834;2022-11-20T08:04:46;100342.03;;;1.64;73.80
29825;BME280;16713;52.916;12.834;2022-11-20T08:07:12;100338.78;;;1.76;73.03
29825;BME280;16713;52.916;12.834;2022-11-20T08:09:38;100342.16;;;1.59;73.84
29825;BME280;16713;52.916;12.834;2022-11-20T08:12:05;100348.75;;;1.67;73.58
29825;BME280;16713;52.916;12.834;2022-11-20T08:14:50;100331.91;;;1.70;74.12
29825;BME280;16713;52.916;12.834;2022-11-20T08:17:16;100335.63;;;1.74;75.00
29825;BME280;16713;52.916;12.834;2022-11-20T08:19:42;100337.66;;;1.90;74.53
29825;BME280;16713;52.916;12.834;2022-11-20T08:22:09;100333.09;;;1.77;74.55
29825;BME280;16713;52.916;12.834;2022-11-20T08:24:35;100331.59;;;1.71;73.81
29825;BME280;16713;52.916;12.834;2022-11-20T08:27:01;100335.63;;;1.60;75.60
29825;BME280;16713;52.916;12.834;2022-11-20T08:29:28;100332.31;;;1.63;75.45
29825;BME280;16713;52.916;12.834;2022-11-20T08:31:54;100330.22;;;1.60;75.32
29825;BME280;16713;52.916;12.834;2022-11-20T08:34:20;100322.88;;;1.74;75.55
29825;BME280;16713;52.916;12.834;2022-11-20T08:36:47;100331.19;;;2.00;75.26
29825;BME280;16713;52.916;12.834;2022-11-20T08:39:13;100330.69;;;1.76;75.17
29825;BME280;16713;52.916;12.834;2022-11-20T08:41:39;100331.88;;;1.83;74.94
29825;BME280;16713;52.916;12.834;2022-11-20T08:44:06;100330.97;;;1.88;74.69
29825;BME280;16713;52.916;12.834;2022-11-20T08:46:34;100330.94;;;1.66;74.32
29825;BME280;16713;52.916;12.834;2022-11-20T08:49:06;100328.03;;;1.62;75.73
29825;BME280;16713;52.916;12.834;2022-11-20T08:51:33;100325.75;;;1.56;75.83
29825;BME280;16713;52.916;12.834;2022-11-20T08:53:59;100325.88;;;1.73;75.55
29825;BME280;16713;52.916;12.834;2022-11-20T08:56:26;100327.66;;;1.55;75.89
29825;BME280;16713;52.916;12.834;2022-11-20T08:58:52;100325.75;;;1.56;75.72
29825;BME280;16713;52.916;12.834;2022-11-20T09:01:39;100320.16;;;1.52;75.54
29825;BME280;16713;52.916;12.834;2022-11-20T09:04:05;100325.81;;;1.64;76.23
29825;BME280;16713;52.916;12.834;2022-11-20T09:06:32;100322.56;;;1.76;74.93
29825;BME280;16713;52.916;12.834;2022-11-20T09:08:58;100322.81;;;1.66;76.35
29825;BME280;16713;52.916;12.834;2022-11-20T09:11:31;100317.03;;;1.59;75.63
29825;BME280;16713;52.916;12.834;2022-11-20T09:13:57;100321.25;;;1.51;76.67
29825;BME280;16713;52.916;12.834;2022-11-20T09:16:24;100318.81;;;1.63;76.17
29825;BME280;16713;52.916;12.834;2022-11-20T09:18:50;100318.31;;;1.61;76.10
29825;BME280;16713;52.916;12.834;2022-11-20T09:21:37;100321.13;;;1.56;76.76
29825;BME280;16713;52.916;12.834;2022-11-20T09:24:04;100317.44;;;1.52;76.81
29825;BME280;16713;52.916;12.834;2022-11-20T09:26:30;100316.44;;;1.48;76.08
29825;BME280;16713;52.916;12.834;2022-11-20T09:28:57;100320.84;;;1.58;77.27
29825;BME280;16713;52.916;12.834;2022-11-20T09:31:24;100313.41;;;1.63;75.55
29825;BME280;16713;52.916;12.834;2022-11-20T09:33:51;100318.59;;;1.73;75.27
29825;BME280;16713;52.916;12.834;2022-11-20T09:36:18;100318.19;;;1.66;75.57
29825;BME280;16713;52.916;12.834;2022-11-20T09:38:45;100314.78;;;1.74;76.22
29825;BME280;16713;52.916;12.834;2022-11-20T09:43:54;100316.84;;;1.77;76.46
29825;BME280;16713;52.916;12.834;2022-11-20T09:54:18;100301.16;;;1.79;76.54
29825;BME280;16713;52.916;12.834;2022-11-20T09:56:46;100298.88;;;1.73;75.67
29825;BME280;16713;52.916;12.834;2022-11-20T09:59:18;100293.69;;;1.63;75.76
29825;BME280;16713;52.916;12.834;2022-11-20T10:01:50;100290.94;;;1.76;75.72
29825;BME280;16713;52.916;12.834;2022-11-20T10:04:17;100293.22;;;1.83;76.16
29825;BME280;16713;52.916;12.834;2022-11-20T10:06:45;100293.75;;;1.71;76.70
29825;BME280;16713;52.916;12.834;2022-11-20T10:09:35;100292.50;;;1.91;75.81
29825;BME280;16713;52.916;12.834;2022-11-20T10:12:09;100287.31;;;1.81;77.48
29825;BME280;16713;52.916;12.834;2022-11-20T10:20:25;100288.56;;;1.75;76.63
29825;BME280;16713;52.916;12.834;2022-11-20T10:25:20;100289.81;;;1.77;77.07
29825;BME280;16713;52.916;12.834;2022-11-20T10:28:15;100288.31;;;1.85;77.48
29825;BME280;16713;52.916;12.834;2022-11-20T10:30:45;100291.06;;;1.93;75.96
29825;BME280;16713;52.916;12.834;2022-11-20T10:33:17;100288.34;;;1.71;76.57
29825;BME280;16713;52.916;12.834;2022-11-20T10:35:49;100285.94;;;1.83;78.06
29825;BME280;16713;52.916;12.834;2022-11-20T10:38:19;100288.34;;;1.71;78.33
29825;BME280;16713;52.916;12.834;2022-11-20T10:40:51;100281.78;;;1.64;77.05
29825;BME280;16713;52.916;12.834;2022-11-20T10:43:21;100276.16;;;1.74;77.89
29825;BME280;16713;52.916;12.834;2022-11-20T10:46:05;100286.66;;;1.75;78.10
29825;BME280;16713;52.916;12.834;2022-11-20T10:48:34;100285.97;;;1.92;76.76
29825;BME280;16713;52.916;12.834;2022-11-20T10:56:11;100283.75;;;1.94;76.59
29825;BME280;16713;52.916;12.834;2022-11-20T11:01:14;100275.69;;;1.80;77.02
29825;BME280;16713;52.916;12.834;2022-11-20T11:03:41;100268.69;;;1.79;77.86
29825;BME280;16713;52.916;12.834;2022-11-20T11:06:23;100278.16;;;1.90;77.38
29825;BME280;16713;52.916;12.834;2022-11-20T11:08:53;100272.09;;;1.85;78.52
29825;BME280;16713;52.916;12.834;2022-11-20T11:11:23;100267.47;;;1.85;77.61
29825;BME280;16713;52.916;12.834;2022-11-20T11:13:50;100269.91;;;2.09;77.08
29825;BME280;16713;52.916;12.834;2022-11-20T11:16:23;100271.91;;;1.81;77.40
29825;BME280;16713;52.916;12.834;2022-11-20T11:18:50;100262.31;;;1.97;77.51
29825;BME280;16713;52.916;12.834;2022-11-20T11:21:23;100265.66;;;2.17;76.28
29825;BME280;16713;52.916;12.834;2022-11-20T11:23:58;100262.00;;;1.99;76.59
29825;BME280;16713;52.916;12.834;2022-11-20T11:27:19;100256.28;;;2.00;77.74
29825;BME280;16713;52.916;12.834;2022-11-20T11:29:42;100256.53;;;2.13;76.00
29825;BME280;16713;52.916;12.834;2022-11-20T11:32:13;100265.28;;;2.10;75.41
29825;BME280;16713;52.916;12.834;2022-11-20T11:34:40;100261.50;;;1.97;77.07
29825;BME280;16713;52.916;12.834;2022-11-20T11:37:15;100258.78;;;2.11;77.76
29825;BME280;16713;52.916;12.834;2022-11-20T11:39:43;100250.69;;;1.97;76.75
29825;BME280;16713;52.916;12.834;2022-11-20T11:42:11;100248.16;;;2.14;76.00
29825;BME280;16713;52.916;12.834;2022-11-20T11:44:43;100251.69;;;2.23;76.03
29825;BME280;16713;52.916;12.834;2022-11-20T11:55:09;100256.09;;;2.19;76.75
29825;BME280;16713;52.916;12.834;2022-11-20T12:00:31;100264.81;;;2.38;75.95
29825;BME280;16713;52.916;12.834;2022-11-20T12:03:08;100259.03;;;2.31;75.16
29825;BME280;16713;52.916;12.834;2022-11-20T12:05:40;100249.81;;;2.32;75.46
29825;BME280;16713;52.916;12.834;2022-11-20T12:08:12;100252.81;;;2.31;76.79
29825;BME280;16713;52.916;12.834;2022-11-20T12:16:36;100241.22;;;2.30;75.49
29825;BME280;16713;52.916;12.834;2022-11-20T12:19:06;100244.44;;;2.41;74.81
29825;BME280;16713;52.916;12.834;2022-11-20T12:21:36;100241.94;;;2.44;75.20
29825;BME280;16713;52.916;12.834;2022-11-20T12:26:44;100241.22;;;2.30;75.82
29825;BME280;16713;52.916;12.834;2022-11-20T12:29:37;100229.78;;;2.33;76.41
29825;BME280;16713;52.916;12.834;2022-11-20T12:40:27;100240.00;;;2.45;74.32
29825;BME280;16713;52.916;12.834;2022-11-20T12:45:52;100227.09;;;2.42;74.50
29825;BME280;16713;52.916;12.834;2022-11-20T12:48:29;100228.94;;;2.63;75.20
29825;BME280;16713;52.916;12.834;2022-11-20T12:51:09;100222.53;;;2.51;74.80
29825;BME280;16713;52.916;12.834;2022-11-20T13:01:53;100228.66;;;2.73;73.69
29825;BME280;16713;52.916;12.834;2022-11-20T13:06:47;100228.34;;;2.75;72.08
29825;BME280;16713;52.916;12.834;2022-11-20T13:09:15;100219.28;;;2.79;72.51
29825;BME280;16713;52.916;12.834;2022-11-20T13:17:04;100228.28;;;2.58;73.14
29825;BME280;16713;52.916;12.834;2022-11-20T13:19:31;100225.50;;;2.41;74.21
29825;BME280;16713;52.916;12.834;2022-11-20T13:21:58;100230.44;;;2.39;73.51
29825;BME280;16713;52.916;12.834;2022-11-20T13:24:26;100223.59;;;2.41;73.70
29825;BME280;16713;52.916;12.834;2022-11-20T13:29:34;100212.75;;;2.33;74.46
29825;BME280;16713;52.916;12.834;2022-11-20T13:32:06;100202.31;;;2.18;74.14
29825;BME280;16713;52.916;12.834;2022-11-20T13:34:33;100208.78;;;2.08;73.19
29825;BME280;16713;52.916;12.834;2022-11-20T13:37:00;100210.75;;;2.16;73.10
29825;BME280;16713;52.916;12.834;2022-11-20T13:39:31;100212.50;;;2.21;72.93
29825;BME280;16713;52.916;12.834;2022-11-20T13:41:58;100218.34;;;2.45;73.06
29825;BME280;16713;52.916;12.834;2022-11-20T13:44:29;100220.38;;;2.31;73.21
29825;BME280;16713;52.916;12.834;2022-11-20T13:47:00;100217.34;;;2.32;73.48
29825;BME280;16713;52.916;12.834;2022-11-20T13:52:36;100212.91;;;2.36;72.96
29825;BME280;16713;52.916;12.834;2022-11-20T14:05:36;100214.00;;;2.27;73.83
29825;BME280;16713;52.916;12.834;2022-11-20T14:08:04;100213.09;;;2.09;74.54
29825;BME280;16713;52.916;12.834;2022-11-20T14:10:32;100213.84;;;2.32;74.13
29825;BME280;16713;52.916;12.834;2022-11-20T14:13:09;100208.28;;;2.28;72.43
29825;BME280;16713;52.916;12.834;2022-11-20T14:15:35;100208.41;;;2.23;72.98
29825;BME280;16713;52.916;12.834;2022-11-20T14:18:14;100200.56;;;2.13;73.48
29825;BME280;16713;52.916;12.834;2022-11-20T14:20:41;100201.84;;;2.16;73.76
29825;BME280;16713;52.916;12.834;2022-11-20T14:23:09;100193.28;;;2.22;73.95
29825;BME280;16713;52.916;12.834;2022-11-20T14:25:36;100201.69;;;2.21;73.72
29825;BME280;16713;52.916;12.834;2022-11-20T14:28:03;100203.16;;;2.27;72.82
29825;BME280;16713;52.916;12.834;2022-11-20T14:33:03;100208.66;;;2.44;73.05
29825;BME280;16713;52.916;12.834;2022-11-20T14:35:30;100202.47;;;2.52;72.56